sensor_id;sensor_type;location;lat;lon;timestamp;P1;durP1;ratioP1;P2;durP2;ratioP2
4837;SDS011;2433;48.768;9.154;2022-12-10T00:00:34;28.27;;;19.07;;
4837;SDS011;2433;48.768;9.154;2022-12-10T00:03:00;29.57;;;18.80;;
4837;SDS011;2433;48.768;9.154;2022-12-10T00:05:26;30.45;;;19.35;;
4837;SDS011;2433;48.768;9.154;2022-12-10T00:07:52;40.90;;;23.00;;
4837;SDS011;2433;48.768;9.154;2022-12-10T00:10:18;31.33;;;18.90;;
4837;SDS011;2433;48.768;9.154;2022-12-10T00:12:43;28.83;;;15.50;;
4837;SDS011;2433;48.768;9.154;2022-12-10T00:15:09;26.20;;;16.40;;
4837;SDS011;2433;48.768;9.154;2022-12-10T00:17:35;30.85;;;17.13;;
4837;SDS011;2433;48.768;9.154;2022-12-10T00:20:01;35.50;;;20.83;;
4837;SDS011;2433;48.768;9.154;2022-12-10T00:22:26;33.27;;;16.73;;
4837;SDS011;2433;48.768;9.154;2022-12-10T00:24:52;32.67;;;18.00;;
4837;SDS011;2433;48.768;9.154;2022-12-10T00:27:17;32.10;;;17.93;;
4837;SDS011;2433;48.768;9.154;2022-12-10T00:29:43;25.90;;;15.43;;
4837;SDS011;2433;48.768;9.154;2022-12-10T00:32:09;30.53;;;17.10;;
4837;SDS011;2433;48.768;9.154;2022-12-10T00:34:34;33.60;;;19.33;;
4837;SDS011;2433;48.768;9.154;2022-12-10T00:37:00;30.17;;;18.92;;
4837;SDS011;2433;48.768;9.154;2022-12-10T00:39:26;33.20;;;19.33;;
4837;SDS011;2433;48.768;9.154;2022-12-10T00:41:52;30.43;;;17.00;;
4837;SDS011;2433;48.768;9.154;2022-12-10T00:44:18;23.45;;;15.75;;
4837;SDS011;2433;48.768;9.154;2022-12-10T00:46:45;26.70;;;17.50;;
4837;SDS011;2433;48.768;9.154;2022-12-10T00:49:10;31.30;;;19.60;;
4837;SDS011;2433;48.768;9.154;2022-12-10T00:51:37;29.00;;;19.13;;
4837;SDS011;2433;48.768;9.154;2022-12-10T00:54:02;28.43;;;18.00;;
4837;SDS011;2433;48.768;9.154;2022-12-10T00:56:29;27.03;;;17.13;;
4837;SDS011;2433;48.768;9.154;2022-12-10T00:58:55;29.48;;;17.48;;
4837;SDS011;2433;48.768;9.154;2022-12-10T01:01:23;27.33;;;15.88;;
4837;SDS011;2433;48.768;9.154;2022-12-10T01:04:03;29.38;;;16.35;;
4837;SDS011;2433;48.768;9.154;2022-12-10T01:06:41;21.95;;;14.40;;
4837;SDS011;2433;48.768;9.154;2022-12-10T01:09:09;31.35;;;16.90;;
4837;SDS011;2433;48.768;9.154;2022-12-10T01:11:37;27.38;;;15.40;;
4837;SDS011;2433;48.768;9.154;2022-12-10T01:14:04;27.17;;;17.08;;
4837;SDS011;2433;48.768;9.154;2022-12-10T01:16:34;24.58;;;16.17;;
4837;SDS011;2433;48.768;9.154;2022-12-10T01:18:59;28.70;;;16.03;;
4837;SDS011;2433;48.768;9.154;2022-12-10T01:21:26;26.77;;;16.70;;
4837;SDS011;2433;48.768;9.154;2022-12-10T01:23:52;21.55;;;14.85;;
4837;SDS011;2433;48.768;9.154;2022-12-10T01:26:19;24.83;;;16.42;;
4837;SDS011;2433;48.768;9.154;2022-12-10T01:28:46;26.00;;;14.38;;
4837;SDS011;2433;48.768;9.154;2022-12-10T01:31:16;29.25;;;16.45;;
4837;SDS011;2433;48.768;9.154;2022-12-10T01:33:46;22.60;;;14.48;;
4837;SDS011;2433;48.768;9.154;2022-12-10T01:36:55;27.70;;;17.27;;
4837;SDS011;2433;48.768;9.154;2022-12-10T01:39:03;27.33;;;18.15;;
4837;SDS011;2433;48.768;9.154;2022-12-10T01:41:32;24.38;;;14.95;;
4837;SDS011;2433;48.768;9.154;2022-12-10T01:46:35;24.95;;;15.77;;
4837;SDS011;2433;48.768;9.154;2022-12-10T01:49:12;25.70;;;16.02;;
4837;SDS011;2433;48.768;9.154;2022-12-10T01:51:44;24.45;;;13.88;;
4837;SDS011;2433;48.768;9.154;2022-12-10T01:54:15;26.60;;;15.07;;
4837;SDS011;2433;48.768;9.154;2022-12-10T01:56:45;22.65;;;13.45;;
4837;SDS011;2433;48.768;9.154;2022-12-10T01:59:21;26.42;;;15.05;;
4837;SDS011;2433;48.768;9.154;2022-12-10T02:10:02;19.83;;;14.35;;
4837;SDS011;2433;48.768;9.154;2022-12-10T02:13:22;26.95;;;15.48;;
4837;SDS011;2433;48.768;9.154;2022-12-10T02:18:20;24.50;;;14.80;;
4837;SDS011;2433;48.768;9.154;2022-12-10T02:21:00;23.17;;;15.10;;
4837;SDS011;2433;48.768;9.154;2022-12-10T02:23:31;28.52;;;17.08;;
4837;SDS011;2433;48.768;9.154;2022-12-10T02:26:06;31.58;;;19.05;;
4837;SDS011;2433;48.768;9.154;2022-12-10T02:31:32;30.98;;;18.05;;
4837;SDS011;2433;48.768;9.154;2022-12-10T02:34:00;33.03;;;18.33;;
4837;SDS011;2433;48.768;9.154;2022-12-10T02:36:29;27.92;;;17.60;;
4837;SDS011;2433;48.768;9.154;2022-12-10T02:38:57;32.13;;;20.17;;
4837;SDS011;2433;48.768;9.154;2022-12-10T02:41:28;26.27;;;17.92;;
4837;SDS011;2433;48.768;9.154;2022-12-10T02:43:58;29.63;;;15.82;;
4837;SDS011;2433;48.768;9.154;2022-12-10T02:46:24;31.10;;;16.73;;
4837;SDS011;2433;48.768;9.154;2022-12-10T02:48:54;29.77;;;19.70;;
4837;SDS011;2433;48.768;9.154;2022-12-10T02:51:20;26.70;;;16.73;;
4837;SDS011;2433;48.768;9.154;2022-12-10T02:53:46;22.38;;;12.43;;
4837;SDS011;2433;48.768;9.154;2022-12-10T02:56:14;30.38;;;16.48;;
4837;SDS011;2433;48.768;9.154;2022-12-10T03:01:59;26.50;;;16.02;;
4837;SDS011;2433;48.768;9.154;2022-12-10T03:07:16;31.60;;;15.93;;
4837;SDS011;2433;48.768;9.154;2022-12-10T03:09:48;28.70;;;16.25;;
4837;SDS011;2433;48.768;9.154;2022-12-10T03:12:20;29.73;;;16.92;;
4837;SDS011;2433;48.768;9.154;2022-12-10T03:15:16;27.33;;;14.68;;
4837;SDS011;2433;48.768;9.154;2022-12-10T03:17:42;24.67;;;17.05;;
4837;SDS011;2433;48.768;9.154;2022-12-10T03:20:11;28.52;;;18.25;;
4837;SDS011;2433;48.768;9.154;2022-12-10T03:22:38;24.33;;;17.08;;
4837;SDS011;2433;48.768;9.154;2022-12-10T03:25:05;30.05;;;16.88;;
4837;SDS011;2433;48.768;9.154;2022-12-10T03:27:32;30.02;;;18.77;;
4837;SDS011;2433;48.768;9.154;2022-12-10T03:29:58;27.30;;;17.70;;
4837;SDS011;2433;48.768;9.154;2022-12-10T03:32:24;28.37;;;16.23;;
4837;SDS011;2433;48.768;9.154;2022-12-10T03:34:52;29.35;;;15.68;;
4837;SDS011;2433;48.768;9.154;2022-12-10T03:37:19;31.27;;;16.33;;
4837;SDS011;2433;48.768;9.154;2022-12-10T03:39:46;22.55;;;16.05;;
4837;SDS011;2433;48.768;9.154;2022-12-10T03:42:12;27.80;;;18.57;;
4837;SDS011;2433;48.768;9.154;2022-12-10T03:44:38;28.00;;;17.70;;
4837;SDS011;2433;48.768;9.154;2022-12-10T03:47:06;23.33;;;16.85;;
4837;SDS011;2433;48.768;9.154;2022-12-10T03:49:35;26.83;;;17.27;;
4837;SDS011;2433;48.768;9.154;2022-12-10T03:52:01;27.23;;;14.63;;
4837;SDS011;2433;48.768;9.154;2022-12-10T03:54:27;27.40;;;14.80;;
4837;SDS011;2433;48.768;9.154;2022-12-10T03:56:53;27.07;;;15.70;;
4837;SDS011;2433;48.768;9.154;2022-12-10T03:59:19;26.43;;;15.43;;
4837;SDS011;2433;48.768;9.154;2022-12-10T04:01:44;23.90;;;14.10;;
4837;SDS011;2433;48.768;9.154;2022-12-10T04:04:10;23.13;;;15.00;;
4837;SDS011;2433;48.768;9.154;2022-12-10T04:06:39;23.87;;;14.57;;
4837;SDS011;2433;48.768;9.154;2022-12-10T04:09:06;24.25;;;13.93;;
4837;SDS011;2433;48.768;9.154;2022-12-10T04:11:32;23.10;;;14.65;;
4837;SDS011;2433;48.768;9.154;2022-12-10T04:13:57;23.97;;;14.80;;
4837;SDS011;2433;48.768;9.154;2022-12-10T04:16:41;27.35;;;15.40;;
4837;SDS011;2433;48.768;9.154;2022-12-10T04:19:08;28.90;;;16.30;;
4837;SDS011;2433;48.768;9.154;2022-12-10T04:21:35;25.52;;;14.93;;
4837;SDS011;2433;48.768;9.154;2022-12-10T04:24:22;21.70;;;14.40;;
4837;SDS011;2433;48.768;9.154;2022-12-10T04:27:09;26.35;;;15.98;;
4837;SDS011;2433;48.768;9.154;2022-12-10T04:29:36;28.92;;;16.45;;
4837;SDS011;2433;48.768;9.154;2022-12-10T04:32:02;31.13;;;17.23;;
4837;SDS011;2433;48.768;9.154;2022-12-10T04:34:27;30.77;;;17.80;;
4837;SDS011;2433;48.768;9.154;2022-12-10T04:36:53;23.87;;;16.20;;
4837;SDS011;2433;48.768;9.154;2022-12-10T04:39:19;28.63;;;18.53;;
4837;SDS011;2433;48.768;9.154;2022-12-10T04:41:46;31.50;;;19.07;;
4837;SDS011;2433;48.768;9.154;2022-12-10T04:44:12;26.00;;;16.52;;
4837;SDS011;2433;48.768;9.154;2022-12-10T04:46:38;27.03;;;16.07;;
4837;SDS011;2433;48.768;9.154;2022-12-10T04:49:04;25.65;;;16.30;;
4837;SDS011;2433;48.768;9.154;2022-12-10T04:51:31;23.60;;;16.20;;
4837;SDS011;2433;48.768;9.154;2022-12-10T04:53:57;28.73;;;16.73;;
4837;SDS011;2433;48.768;9.154;2022-12-10T04:56:23;27.02;;;16.48;;
4837;SDS011;2433;48.768;9.154;2022-12-10T04:58:49;25.43;;;15.33;;
4837;SDS011;2433;48.768;9.154;2022-12-10T05:01:14;28.83;;;15.63;;
4837;SDS011;2433;48.768;9.154;2022-12-10T05:03:40;23.90;;;13.63;;
4837;SDS011;2433;48.768;9.154;2022-12-10T05:06:07;24.77;;;14.40;;
4837;SDS011;2433;48.768;9.154;2022-12-10T05:08:34;23.70;;;13.85;;
4837;SDS011;2433;48.768;9.154;2022-12-10T05:11:01;33.97;;;17.00;;
4837;SDS011;2433;48.768;9.154;2022-12-10T05:13:27;25.35;;;15.27;;
4837;SDS011;2433;48.768;9.154;2022-12-10T05:15:53;25.30;;;15.87;;
4837;SDS011;2433;48.768;9.154;2022-12-10T05:18:19;29.13;;;17.87;;
4837;SDS011;2433;48.768;9.154;2022-12-10T05:20:44;29.50;;;16.50;;
4837;SDS011;2433;48.768;9.154;2022-12-10T05:23:10;29.93;;;16.00;;
4837;SDS011;2433;48.768;9.154;2022-12-10T05:28:45;27.92;;;15.57;;
4837;SDS011;2433;48.768;9.154;2022-12-10T05:31:13;24.23;;;15.82;;
4837;SDS011;2433;48.768;9.154;2022-12-10T05:33:40;30.35;;;17.80;;
4837;SDS011;2433;48.768;9.154;2022-12-10T05:36:07;29.30;;;17.00;;
4837;SDS011;2433;48.768;9.154;2022-12-10T05:38:33;20.90;;;12.67;;
4837;SDS011;2433;48.768;9.154;2022-12-10T05:41:02;30.92;;;17.45;;
4837;SDS011;2433;48.768;9.154;2022-12-10T05:43:29;31.60;;;15.77;;
4837;SDS011;2433;48.768;9.154;2022-12-10T05:45:58;31.43;;;18.80;;
4837;SDS011;2433;48.768;9.154;2022-12-10T05:48:27;24.15;;;14.68;;
4837;SDS011;2433;48.768;9.154;2022-12-10T05:50:53;28.47;;;16.40;;
4837;SDS011;2433;48.768;9.154;2022-12-10T05:53:19;27.83;;;16.87;;
4837;SDS011;2433;48.768;9.154;2022-12-10T05:55:44;25.93;;;16.10;;
4837;SDS011;2433;48.768;9.154;2022-12-10T05:58:10;32.27;;;16.77;;
4837;SDS011;2433;48.768;9.154;2022-12-10T06:00:38;31.90;;;18.50;;
4837;SDS011;2433;48.768;9.154;2022-12-10T06:03:04;25.30;;;15.80;;
4837;SDS011;2433;48.768;9.154;2022-12-10T06:05:29;36.90;;;18.90;;
4837;SDS011;2433;48.768;9.154;2022-12-10T06:07:55;34.27;;;20.93;;
4837;SDS011;2433;48.768;9.154;2022-12-10T06:10:20;27.53;;;17.27;;
4837;SDS011;2433;48.768;9.154;2022-12-10T06:12:46;31.37;;;16.87;;
4837;SDS011;2433;48.768;9.154;2022-12-10T06:15:11;28.27;;;16.40;;
4837;SDS011;2433;48.768;9.154;2022-12-10T06:17:37;26.57;;;16.57;;
4837;SDS011;2433;48.768;9.154;2022-12-10T06:20:03;31.20;;;17.07;;
4837;SDS011;2433;48.768;9.154;2022-12-10T06:22:28;28.03;;;15.10;;
4837;SDS011;2433;48.768;9.154;2022-12-10T06:24:54;28.90;;;14.90;;
4837;SDS011;2433;48.768;9.154;2022-12-10T06:27:19;23.73;;;15.07;;
4837;SDS011;2433;48.768;9.154;2022-12-10T06:29:45;33.73;;;16.80;;
4837;SDS011;2433;48.768;9.154;2022-12-10T06:32:10;24.00;;;14.20;;
4837;SDS011;2433;48.768;9.154;2022-12-10T06:34:36;26.77;;;14.10;;
4837;SDS011;2433;48.768;9.154;2022-12-10T06:37:01;25.13;;;15.17;;
4837;SDS011;2433;48.768;9.154;2022-12-10T06:39:27;28.60;;;16.50;;
4837;SDS011;2433;48.768;9.154;2022-12-10T06:41:52;23.63;;;15.33;;
4837;SDS011;2433;48.768;9.154;2022-12-10T06:44:18;24.97;;;14.80;;
4837;SDS011;2433;48.768;9.154;2022-12-10T06:46:44;29.23;;;16.83;;
4837;SDS011;2433;48.768;9.154;2022-12-10T06:49:09;30.73;;;16.30;;
4837;SDS011;2433;48.768;9.154;2022-12-10T06:51:35;25.33;;;14.83;;
4837;SDS011;2433;48.768;9.154;2022-12-10T06:54:00;22.90;;;15.87;;
4837;SDS011;2433;48.768;9.154;2022-12-10T06:56:26;22.80;;;13.87;;
4837;SDS011;2433;48.768;9.154;2022-12-10T06:58:52;26.63;;;15.60;;
4837;SDS011;2433;48.768;9.154;2022-12-10T07:01:21;24.30;;;15.27;;
4837;SDS011;2433;48.768;9.154;2022-12-10T07:03:51;27.73;;;15.30;;
4837;SDS011;2433;48.768;9.154;2022-12-10T07:06:18;21.15;;;14.57;;
4837;SDS011;2433;48.768;9.154;2022-12-10T07:08:44;28.38;;;16.17;;
4837;SDS011;2433;48.768;9.154;2022-12-10T07:11:11;18.00;;;11.53;;
4837;SDS011;2433;48.768;9.154;2022-12-10T07:13:38;33.55;;;16.65;;
4837;SDS011;2433;48.768;9.154;2022-12-10T07:18:42;24.58;;;15.65;;
4837;SDS011;2433;48.768;9.154;2022-12-10T07:21:21;24.13;;;14.47;;
4837;SDS011;2433;48.768;9.154;2022-12-10T07:23:56;28.85;;;15.85;;
4837;SDS011;2433;48.768;9.154;2022-12-10T07:26:29;27.25;;;14.80;;
4837;SDS011;2433;48.768;9.154;2022-12-10T07:28:57;22.00;;;15.15;;
4837;SDS011;2433;48.768;9.154;2022-12-10T07:31:24;37.88;;;18.27;;
4837;SDS011;2433;48.768;9.154;2022-12-10T07:33:50;27.37;;;15.60;;
4837;SDS011;2433;48.768;9.154;2022-12-10T07:36:16;34.70;;;17.15;;
4837;SDS011;2433;48.768;9.154;2022-12-10T07:38:41;27.70;;;16.77;;
4837;SDS011;2433;48.768;9.154;2022-12-10T07:41:09;26.37;;;17.17;;
4837;SDS011;2433;48.768;9.154;2022-12-10T07:43:36;28.83;;;16.50;;
4837;SDS011;2433;48.768;9.154;2022-12-10T07:46:07;28.25;;;14.60;;
4837;SDS011;2433;48.768;9.154;2022-12-10T07:48:34;23.20;;;14.10;;
4837;SDS011;2433;48.768;9.154;2022-12-10T07:51:01;26.48;;;14.02;;
4837;SDS011;2433;48.768;9.154;2022-12-10T07:53:26;28.17;;;16.90;;
4837;SDS011;2433;48.768;9.154;2022-12-10T07:55:52;26.80;;;16.40;;
4837;SDS011;2433;48.768;9.154;2022-12-10T07:58:17;32.47;;;18.90;;
4837;SDS011;2433;48.768;9.154;2022-12-10T08:00:43;24.83;;;16.43;;
4837;SDS011;2433;48.768;9.154;2022-12-10T08:03:09;29.43;;;16.00;;
4837;SDS011;2433;48.768;9.154;2022-12-10T08:05:34;20.90;;;13.87;;
4837;SDS011;2433;48.768;9.154;2022-12-10T08:08:00;24.23;;;16.10;;
4837;SDS011;2433;48.768;9.154;2022-12-10T08:10:25;25.20;;;15.27;;
4837;SDS011;2433;48.768;9.154;2022-12-10T08:12:51;32.63;;;19.00;;
4837;SDS011;2433;48.768;9.154;2022-12-10T08:15:16;30.23;;;17.80;;
4837;SDS011;2433;48.768;9.154;2022-12-10T08:17:42;25.67;;;15.57;;
4837;SDS011;2433;48.768;9.154;2022-12-10T08:20:07;29.13;;;17.00;;
4837;SDS011;2433;48.768;9.154;2022-12-10T08:22:33;30.63;;;16.15;;
4837;SDS011;2433;48.768;9.154;2022-12-10T08:25:00;27.80;;;17.30;;
4837;SDS011;2433;48.768;9.154;2022-12-10T08:27:28;34.28;;;18.95;;
4837;SDS011;2433;48.768;9.154;2022-12-10T08:29:53;29.80;;;18.13;;
4837;SDS011;2433;48.768;9.154;2022-12-10T08:32:19;35.73;;;18.60;;
4837;SDS011;2433;48.768;9.154;2022-12-10T08:34:44;28.80;;;16.70;;
4837;SDS011;2433;48.768;9.154;2022-12-10T08:37:10;27.57;;;18.83;;
4837;SDS011;2433;48.768;9.154;2022-12-10T08:39:38;32.70;;;21.83;;
4837;SDS011;2433;48.768;9.154;2022-12-10T08:42:05;29.60;;;17.38;;
4837;SDS011;2433;48.768;9.154;2022-12-10T08:44:31;29.83;;;14.53;;
4837;SDS011;2433;48.768;9.154;2022-12-10T08:46:56;26.03;;;14.70;;
4837;SDS011;2433;48.768;9.154;2022-12-10T08:49:22;30.23;;;17.67;;
4837;SDS011;2433;48.768;9.154;2022-12-10T08:51:47;29.63;;;17.70;;
4837;SDS011;2433;48.768;9.154;2022-12-10T08:54:13;33.50;;;17.57;;
4837;SDS011;2433;48.768;9.154;2022-12-10T08:56:38;30.07;;;15.83;;
4837;SDS011;2433;48.768;9.154;2022-12-10T08:59:04;24.90;;;17.17;;
4837;SDS011;2433;48.768;9.154;2022-12-10T09:01:31;26.67;;;17.98;;
4837;SDS011;2433;48.768;9.154;2022-12-10T09:03:56;27.37;;;16.70;;
4837;SDS011;2433;48.768;9.154;2022-12-10T09:06:22;31.03;;;17.27;;
4837;SDS011;2433;48.768;9.154;2022-12-10T09:08:49;33.75;;;20.48;;
4837;SDS011;2433;48.768;9.154;2022-12-10T09:11:16;28.92;;;16.63;;
4837;SDS011;2433;48.768;9.154;2022-12-10T09:13:44;26.50;;;16.27;;
4837;SDS011;2433;48.768;9.154;2022-12-10T09:16:09;20.70;;;13.40;;
4837;SDS011;2433;48.768;9.154;2022-12-10T09:18:35;29.30;;;14.93;;
4837;SDS011;2433;48.768;9.154;2022-12-10T09:21:08;27.00;;;15.33;;
4837;SDS011;2433;48.768;9.154;2022-12-10T09:23:34;20.63;;;13.90;;
4837;SDS011;2433;48.768;9.154;2022-12-10T09:26:00;26.23;;;15.70;;
4837;SDS011;2433;48.768;9.154;2022-12-10T09:28:26;27.27;;;16.13;;
4837;SDS011;2433;48.768;9.154;2022-12-10T09:30:58;22.20;;;16.30;;
4837;SDS011;2433;48.768;9.154;2022-12-10T09:33:25;31.63;;;17.17;;
4837;SDS011;2433;48.768;9.154;2022-12-10T09:35:51;27.70;;;15.77;;
4837;SDS011;2433;48.768;9.154;2022-12-10T09:38:16;30.60;;;16.43;;
4837;SDS011;2433;48.768;9.154;2022-12-10T09:40:46;21.93;;;13.83;;
4837;SDS011;2433;48.768;9.154;2022-12-10T09:44:06;29.05;;;18.83;;
4837;SDS011;2433;48.768;9.154;2022-12-10T09:46:53;26.08;;;15.43;;
4837;SDS011;2433;48.768;9.154;2022-12-10T09:52:06;33.83;;;16.95;;
4837;SDS011;2433;48.768;9.154;2022-12-10T09:59:52;26.10;;;15.70;;
4837;SDS011;2433;48.768;9.154;2022-12-10T10:04:46;32.40;;;18.73;;
4837;SDS011;2433;48.768;9.154;2022-12-10T10:07:19;23.90;;;16.02;;
4837;SDS011;2433;48.768;9.154;2022-12-10T10:09:47;28.35;;;15.15;;
4837;SDS011;2433;48.768;9.154;2022-12-10T10:12:13;26.13;;;14.85;;
4837;SDS011;2433;48.768;9.154;2022-12-10T10:14:39;29.02;;;16.95;;
4837;SDS011;2433;48.768;9.154;2022-12-10T10:17:11;31.55;;;16.65;;
4837;SDS011;2433;48.768;9.154;2022-12-10T10:19:43;26.00;;;16.42;;
4837;SDS011;2433;48.768;9.154;2022-12-10T10:22:09;26.92;;;16.02;;
4837;SDS011;2433;48.768;9.154;2022-12-10T10:24:43;27.83;;;16.60;;
4837;SDS011;2433;48.768;9.154;2022-12-10T10:29:43;29.85;;;15.60;;
4837;SDS011;2433;48.768;9.154;2022-12-10T10:32:20;28.05;;;15.73;;
4837;SDS011;2433;48.768;9.154;2022-12-10T10:34:52;28.02;;;15.88;;
4837;SDS011;2433;48.768;9.154;2022-12-10T10:37:24;18.65;;;11.63;;
4837;SDS011;2433;48.768;9.154;2022-12-10T10:39:53;29.70;;;17.20;;
4837;SDS011;2433;48.768;9.154;2022-12-10T10:44:57;25.33;;;16.20;;
4837;SDS011;2433;48.768;9.154;2022-12-10T10:47:31;29.58;;;19.48;;
4837;SDS011;2433;48.768;9.154;2022-12-10T10:49:58;33.25;;;20.15;;
4837;SDS011;2433;48.768;9.154;2022-12-10T10:52:27;21.92;;;12.25;;
4837;SDS011;2433;48.768;9.154;2022-12-10T10:54:53;27.50;;;15.95;;
4837;SDS011;2433;48.768;9.154;2022-12-10T10:59:46;27.42;;;16.30;;
4837;SDS011;2433;48.768;9.154;2022-12-10T11:05:07;21.00;;;13.88;;
4837;SDS011;2433;48.768;9.154;2022-12-10T11:07:40;12.82;;;9.68;;
4837;SDS011;2433;48.768;9.154;2022-12-10T11:10:19;26.20;;;18.30;;
4837;SDS011;2433;48.768;9.154;2022-12-10T11:13:19;24.85;;;17.15;;
4837;SDS011;2433;48.768;9.154;2022-12-10T11:15:40;23.30;;;14.85;;
4837;SDS011;2433;48.768;9.154;2022-12-10T11:21:09;23.48;;;12.25;;
4837;SDS011;2433;48.768;9.154;2022-12-10T11:23:46;24.05;;;13.57;;
4837;SDS011;2433;48.768;9.154;2022-12-10T11:35:20;22.83;;;14.23;;
4837;SDS011;2433;48.768;9.154;2022-12-10T11:49:31;20.48;;;12.82;;
4837;SDS011;2433;48.768;9.154;2022-12-10T11:52:11;12.00;;;8.15;;
4837;SDS011;2433;48.768;9.154;2022-12-10T12:00:30;19.65;;;12.77;;
4837;SDS011;2433;48.768;9.154;2022-12-10T12:05:52;20.85;;;12.20;;
4837;SDS011;2433;48.768;9.154;2022-12-10T12:11:29;23.88;;;14.13;;
4837;SDS011;2433;48.768;9.154;2022-12-10T12:14:29;24.75;;;15.65;;
4837;SDS011;2433;48.768;9.154;2022-12-10T12:17:19;23.02;;;13.35;;
4837;SDS011;2433;48.768;9.154;2022-12-10T12:22:28;24.27;;;14.55;;
4837;SDS011;2433;48.768;9.154;2022-12-10T12:25:00;20.30;;;13.63;;
4837;SDS011;2433;48.768;9.154;2022-12-10T12:27:59;28.98;;;15.38;;
4837;SDS011;2433;48.768;9.154;2022-12-10T12:30:32;19.13;;;13.00;;
4837;SDS011;2433;48.768;9.154;2022-12-10T12:33:43;29.45;;;15.68;;
4837;SDS011;2433;48.768;9.154;2022-12-10T12:35:59;24.60;;;14.88;;
4837;SDS011;2433;48.768;9.154;2022-12-10T12:38:36;26.35;;;14.68;;
4837;SDS011;2433;48.768;9.154;2022-12-10T12:41:12;18.75;;;11.27;;
4837;SDS011;2433;48.768;9.154;2022-12-10T12:44:14;19.38;;;13.60;;
4837;SDS011;2433;48.768;9.154;2022-12-10T12:46:46;25.90;;;16.67;;
4837;SDS011;2433;48.768;9.154;2022-12-10T12:51:58;19.33;;;12.38;;
4837;SDS011;2433;48.768;9.154;2022-12-10T12:54:26;21.83;;;11.95;;
4837;SDS011;2433;48.768;9.154;2022-12-10T12:59:56;22.42;;;12.98;;
4837;SDS011;2433;48.768;9.154;2022-12-10T13:02:42;18.15;;;10.43;;
4837;SDS011;2433;48.768;9.154;2022-12-10T13:05:16;19.05;;;11.75;;
4837;SDS011;2433;48.768;9.154;2022-12-10T13:08:02;21.80;;;13.15;;
4837;SDS011;2433;48.768;9.154;2022-12-10T13:11:00;20.52;;;12.93;;
4837;SDS011;2433;48.768;9.154;2022-12-10T13:34:44;28.15;;;16.83;;
4837;SDS011;2433;48.768;9.154;2022-12-10T13:45:23;25.52;;;12.75;;
4837;SDS011;2433;48.768;9.154;2022-12-10T13:47:50;27.67;;;14.65;;
4837;SDS011;2433;48.768;9.154;2022-12-10T13:50:32;24.48;;;14.05;;
4837;SDS011;2433;48.768;9.154;2022-12-10T14:04:18;27.05;;;13.38;;
4837;SDS011;2433;48.768;9.154;2022-12-10T14:06:48;21.20;;;13.60;;
4837;SDS011;2433;48.768;9.154;2022-12-10T14:11:51;24.10;;;14.27;;
4837;SDS011;2433;48.768;9.154;2022-12-10T14:14:38;25.80;;;12.55;;
4837;SDS011;2433;48.768;9.154;2022-12-10T14:17:15;19.70;;;11.43;;
4837;SDS011;2433;48.768;9.154;2022-12-10T14:19:49;15.05;;;9.48;;
4837;SDS011;2433;48.768;9.154;2022-12-10T14:22:17;24.83;;;15.30;;
4837;SDS011;2433;48.768;9.154;2022-12-10T14:24:44;25.08;;;14.85;;
4837;SDS011;2433;48.768;9.154;2022-12-10T14:27:20;24.27;;;11.47;;
4837;SDS011;2433;48.768;9.154;2022-12-10T14:29:51;23.75;;;12.18;;
4837;SDS011;2433;48.768;9.154;2022-12-10T14:32:32;25.80;;;15.18;;
4837;SDS011;2433;48.768;9.154;2022-12-10T14:35:01;21.23;;;12.82;;
4837;SDS011;2433;48.768;9.154;2022-12-10T14:37:29;24.25;;;12.50;;
4837;SDS011;2433;48.768;9.154;2022-12-10T14:39:56;17.20;;;11.18;;
4837;SDS011;2433;48.768;9.154;2022-12-10T14:42:22;21.80;;;13.10;;
4837;SDS011;2433;48.768;9.154;2022-12-10T14:44:51;19.70;;;12.23;;
4837;SDS011;2433;48.768;9.154;2022-12-10T14:47:21;17.02;;;9.98;;
4837;SDS011;2433;48.768;9.154;2022-12-10T14:49:48;22.87;;;13.53;;
4837;SDS011;2433;48.768;9.154;2022-12-10T14:52:16;19.25;;;11.50;;
4837;SDS011;2433;48.768;9.154;2022-12-10T14:54:44;19.88;;;13.13;;
4837;SDS011;2433;48.768;9.154;2022-12-10T14:57:17;24.60;;;10.27;;
4837;SDS011;2433;48.768;9.154;2022-12-10T15:02:36;19.15;;;13.35;;
4837;SDS011;2433;48.768;9.154;2022-12-10T15:05:03;24.00;;;12.10;;
4837;SDS011;2433;48.768;9.154;2022-12-10T15:07:35;28.00;;;14.55;;
4837;SDS011;2433;48.768;9.154;2022-12-10T15:10:06;22.58;;;11.73;;
4837;SDS011;2433;48.768;9.154;2022-12-10T15:12:37;22.23;;;12.52;;
4837;SDS011;2433;48.768;9.154;2022-12-10T15:15:29;23.17;;;10.68;;
4837;SDS011;2433;48.768;9.154;2022-12-10T15:23:07;23.10;;;12.70;;
4837;SDS011;2433;48.768;9.154;2022-12-10T15:25:41;24.08;;;12.63;;
4837;SDS011;2433;48.768;9.154;2022-12-10T15:28:20;21.20;;;11.40;;
4837;SDS011;2433;48.768;9.154;2022-12-10T15:30:47;21.35;;;11.02;;
4837;SDS011;2433;48.768;9.154;2022-12-10T15:33:36;25.92;;;13.23;;
4837;SDS011;2433;48.768;9.154;2022-12-10T15:36:04;22.65;;;13.10;;
4837;SDS011;2433;48.768;9.154;2022-12-10T15:38:30;18.90;;;11.20;;
4837;SDS011;2433;48.768;9.154;2022-12-10T15:40:57;19.30;;;10.60;;
4837;SDS011;2433;48.768;9.154;2022-12-10T15:44:04;20.40;;;12.15;;
4837;SDS011;2433;48.768;9.154;2022-12-10T15:46:31;22.50;;;13.38;;
4837;SDS011;2433;48.768;9.154;2022-12-10T15:48:57;21.02;;;11.43;;
4837;SDS011;2433;48.768;9.154;2022-12-10T15:51:23;25.40;;;12.10;;
4837;SDS011;2433;48.768;9.154;2022-12-10T15:53:49;24.13;;;12.98;;
4837;SDS011;2433;48.768;9.154;2022-12-10T15:56:15;22.73;;;10.43;;
4837;SDS011;2433;48.768;9.154;2022-12-10T15:58:41;20.17;;;12.27;;
4837;SDS011;2433;48.768;9.154;2022-12-10T16:01:07;21.60;;;11.97;;
4837;SDS011;2433;48.768;9.154;2022-12-10T16:03:35;17.45;;;12.13;;
4837;SDS011;2433;48.768;9.154;2022-12-10T16:06:02;17.75;;;9.27;;
4837;SDS011;2433;48.768;9.154;2022-12-10T16:08:28;21.20;;;11.43;;
4837;SDS011;2433;48.768;9.154;2022-12-10T16:10:56;19.98;;;11.52;;
4837;SDS011;2433;48.768;9.154;2022-12-10T16:13:26;14.65;;;9.63;;
4837;SDS011;2433;48.768;9.154;2022-12-10T16:16:00;18.23;;;12.27;;
4837;SDS011;2433;48.768;9.154;2022-12-10T16:18:30;20.30;;;11.00;;
4837;SDS011;2433;48.768;9.154;2022-12-10T16:20:55;20.87;;;11.90;;
4837;SDS011;2433;48.768;9.154;2022-12-10T16:23:21;16.57;;;8.43;;
4837;SDS011;2433;48.768;9.154;2022-12-10T16:25:47;23.23;;;11.87;;
4837;SDS011;2433;48.768;9.154;2022-12-10T16:28:13;17.97;;;10.97;;
4837;SDS011;2433;48.768;9.154;2022-12-10T16:30:42;18.70;;;11.93;;
4837;SDS011;2433;48.768;9.154;2022-12-10T16:33:10;24.30;;;13.30;;
4837;SDS011;2433;48.768;9.154;2022-12-10T16:35:36;17.33;;;11.07;;
4837;SDS011;2433;48.768;9.154;2022-12-10T16:38:01;17.00;;;10.03;;
4837;SDS011;2433;48.768;9.154;2022-12-10T16:40:27;21.47;;;12.30;;
4837;SDS011;2433;48.768;9.154;2022-12-10T16:42:54;13.93;;;8.82;;
4837;SDS011;2433;48.768;9.154;2022-12-10T16:45:21;17.85;;;11.48;;
4837;SDS011;2433;48.768;9.154;2022-12-10T16:48:09;9.15;;;4.35;;
4837;SDS011;2433;48.768;9.154;2022-12-10T16:50:35;21.20;;;10.50;;
4837;SDS011;2433;48.768;9.154;2022-12-10T16:53:02;17.07;;;10.83;;
4837;SDS011;2433;48.768;9.154;2022-12-10T16:55:32;19.63;;;9.35;;
4837;SDS011;2433;48.768;9.154;2022-12-10T16:57:58;17.20;;;9.35;;
4837;SDS011;2433;48.768;9.154;2022-12-10T17:00:25;22.17;;;12.10;;
4837;SDS011;2433;48.768;9.154;2022-12-10T17:02:53;16.65;;;10.60;;
4837;SDS011;2433;48.768;9.154;2022-12-10T17:05:27;22.80;;;11.00;;
4837;SDS011;2433;48.768;9.154;2022-12-10T17:07:55;16.20;;;9.40;;
4837;SDS011;2433;48.768;9.154;2022-12-10T17:10:20;15.00;;;8.90;;
4837;SDS011;2433;48.768;9.154;2022-12-10T17:13:07;15.02;;;10.57;;
4837;SDS011;2433;48.768;9.154;2022-12-10T17:15:37;16.08;;;11.23;;
4837;SDS011;2433;48.768;9.154;2022-12-10T17:18:03;21.00;;;11.98;;
4837;SDS011;2433;48.768;9.154;2022-12-10T17:20:29;18.40;;;10.67;;
4837;SDS011;2433;48.768;9.154;2022-12-10T17:22:54;18.27;;;10.53;;
4837;SDS011;2433;48.768;9.154;2022-12-10T17:25:20;16.30;;;10.53;;